Terminal Aerodrome Forecast
Issued by NWS

Home | Current Version | Previous Version | Text Only | Print | Product List | Glossary On
Versions: 1 2 3 4 5 6 7 8 9 10 11 12 13 14 15 16 17 18 19 20 21 22 23 24 25 26 27
000
FTUS44 KBMX 171814 AAA
TAFANB
TAF AMD
KANB 171814Z 1718/1818 24009G18KT P6SM SCT025 WS002/22019KT
     FM172200 25013KT 6SM SHRA SCT025 OVC040
     FM180600 32010KT 4SM BR OVC007
     FM181100 04005KT 6SM SHRA OVC010=

USA.gov is the U.S. government's official web portal to all federal, state and local government web resources and services.